createdAt,value
2018-08-31T00:00:00.605Z,11.75
2018-08-31T00:01:04.117Z,11.74
2018-08-31T00:02:07.533Z,11.66
2018-08-31T00:03:10.571Z,11.66
2018-08-31T00:04:14.127Z,11.71
2018-08-31T00:05:17.126Z,11.65
2018-08-31T00:06:20.159Z,11.57
2018-08-31T00:07:23.174Z,11.59
2018-08-31T00:08:26.005Z,11.49
2018-08-31T00:09:28.858Z,11.51
2018-08-31T00:10:31.943Z,11.57
2018-08-31T00:11:34.795Z,11.67
2018-08-31T00:12:38.330Z,11.80
2018-08-31T00:13:41.566Z,11.94
2018-08-31T00:14:44.639Z,11.98
2018-08-31T00:15:48.607Z,11.96
2018-08-31T00:16:51.460Z,11.98
2018-08-31T00:17:54.316Z,12.09
2018-08-31T00:18:57.366Z,12.21
2018-08-31T00:20:00.512Z,12.29
2018-08-31T00:21:04.271Z,12.34
2018-08-31T00:22:07.130Z,12.19
2018-08-31T00:23:09.972Z,12.20
2018-08-31T00:24:12.831Z,12.17
2018-08-31T00:25:15.701Z,12.04
2018-08-31T00:26:19.198Z,11.95
2018-08-31T00:27:22.198Z,11.88
2018-08-31T00:28:25.050Z,11.85
2018-08-31T00:29:27.870Z,11.92
2018-08-31T00:30:30.717Z,11.94
2018-08-31T00:31:33.562Z,11.96
2018-08-31T00:32:36.701Z,12.04
2018-08-31T00:33:39.645Z,12.06
2018-08-31T00:34:42.495Z,11.97
2018-08-31T00:35:45.335Z,12.01
2018-08-31T00:36:48.176Z,12.15
2018-08-31T00:37:51.051Z,12.19
2018-08-31T00:38:54.398Z,12.21
2018-08-31T00:39:57.259Z,12.16
2018-08-31T00:41:01.023Z,12.16
2018-08-31T00:42:03.862Z,12.05
2018-08-31T00:43:07.336Z,11.91
2018-08-31T00:44:10.477Z,11.81
2018-08-31T00:45:14.213Z,11.91
2018-08-31T00:46:17.066Z,11.96
2018-08-31T00:47:21.623Z,11.98
2018-08-31T00:48:25.420Z,11.85
2018-08-31T00:49:28.249Z,11.71
2018-08-31T00:50:31.448Z,11.68
2018-08-31T00:51:34.608Z,11.77
2018-08-31T00:52:37.430Z,11.81
2018-08-31T00:53:40.353Z,11.88
2018-08-31T00:54:43.810Z,11.91
2018-08-31T00:55:46.633Z,11.97
2018-08-31T00:56:49.758Z,11.96
2018-08-31T00:57:54.507Z,11.84
2018-08-31T00:58:57.397Z,11.91
2018-08-31T01:00:00.264Z,11.92
2018-08-31T01:01:03.975Z,12.04
2018-08-31T01:02:06.815Z,11.99
2018-08-31T01:03:09.665Z,11.90
2018-08-31T01:04:12.816Z,11.89
2018-08-31T01:05:16.144Z,12.00
2018-08-31T01:06:19.017Z,12.07
2018-08-31T01:07:21.990Z,12.19
2018-08-31T01:08:24.883Z,12.03
2018-08-31T01:09:29.011Z,11.64
2018-08-31T01:10:32.121Z,11.61
2018-08-31T01:11:35.007Z,11.71
2018-08-31T01:12:37.843Z,11.75
2018-08-31T01:13:40.723Z,11.75
2018-08-31T01:14:43.567Z,11.75
2018-08-31T01:15:46.415Z,11.82
2018-08-31T01:16:49.566Z,11.81
2018-08-31T01:17:52.478Z,11.89
2018-08-31T01:18:55.308Z,11.92
2018-08-31T01:19:59.171Z,11.98
2018-08-31T01:21:02.016Z,12.02
2018-08-31T01:22:04.916Z,12.04
2018-08-31T01:23:08.161Z,11.96
2018-08-31T01:24:11.067Z,11.94
2018-08-31T01:25:14.010Z,11.98
2018-08-31T01:26:16.847Z,12.04
2018-08-31T01:27:19.708Z,12.07
2018-08-31T01:28:22.595Z,12.02
2018-08-31T01:29:25.944Z,11.76
2018-08-31T01:30:28.819Z,11.70
2018-08-31T01:31:31.670Z,11.43
2018-08-31T01:32:34.528Z,11.47
2018-08-31T01:33:37.390Z,11.56
2018-08-31T01:34:40.297Z,11.70
2018-08-31T01:35:43.594Z,11.74
2018-08-31T01:36:46.441Z,11.63
2018-08-31T01:37:49.273Z,11.71
2018-08-31T01:38:52.152Z,11.81
2018-08-31T01:39:55.025Z,11.71
2018-08-31T01:40:57.916Z,11.55
2018-08-31T01:42:00.793Z,11.47
2018-08-31T01:43:03.642Z,11.42
2018-08-31T01:44:06.778Z,11.46
2018-08-31T01:45:09.677Z,11.48
2018-08-31T01:46:12.552Z,11.64
2018-08-31T01:47:15.456Z,11.81
2018-08-31T01:48:18.722Z,11.87
2018-08-31T01:49:21.603Z,11.92
2018-08-31T01:50:24.525Z,11.89
2018-08-31T01:51:27.473Z,11.80
2018-08-31T01:52:30.406Z,11.78
2018-08-31T01:53:33.303Z,11.85
2018-08-31T01:54:36.533Z,11.91
2018-08-31T01:55:39.389Z,11.91
2018-08-31T01:56:42.484Z,11.94
2018-08-31T01:57:45.579Z,11.91
2018-08-31T01:58:48.459Z,11.83
2018-08-31T01:59:51.384Z,11.77
2018-08-31T02:00:54.607Z,11.68
2018-08-31T02:01:57.452Z,11.64
2018-08-31T02:03:00.290Z,11.69
2018-08-31T02:04:04.466Z,11.74
2018-08-31T02:05:07.273Z,11.78
2018-08-31T02:06:10.131Z,11.83
2018-08-31T02:07:15.780Z,11.87
2018-08-31T02:08:18.635Z,11.82
2018-08-31T02:09:22.539Z,11.81
2018-08-31T02:10:25.462Z,11.81
2018-08-31T02:11:28.374Z,11.83
2018-08-31T02:12:31.242Z,11.81
2018-08-31T02:13:34.592Z,11.80
2018-08-31T02:14:37.439Z,11.63
2018-08-31T02:15:40.302Z,11.57
2018-08-31T02:16:43.139Z,11.63
2018-08-31T02:17:45.986Z,11.73
2018-08-31T02:18:48.847Z,11.83
2018-08-31T02:19:52.146Z,11.77
2018-08-31T02:20:54.982Z,11.80
2018-08-31T02:21:57.818Z,11.84
2018-08-31T02:23:00.668Z,11.86
2018-08-31T02:24:04.115Z,11.83
2018-08-31T02:25:06.972Z,11.73
2018-08-31T02:26:10.245Z,11.64
2018-08-31T02:27:13.123Z,11.69
2018-08-31T02:28:16.000Z,11.78
2018-08-31T02:29:18.911Z,11.84
2018-08-31T02:30:21.784Z,11.82
2018-08-31T02:31:24.790Z,11.82
2018-08-31T02:32:28.062Z,11.83
2018-08-31T02:33:30.939Z,11.81
2018-08-31T02:34:33.800Z,11.78
2018-08-31T02:35:36.695Z,11.80
2018-08-31T02:36:39.515Z,11.78
2018-08-31T02:37:42.366Z,11.78
2018-08-31T02:38:46.225Z,11.68
2018-08-31T02:39:49.120Z,11.59
2018-08-31T02:40:51.960Z,11.58
2018-08-31T02:41:54.846Z,11.64
2018-08-31T02:42:57.671Z,11.64
2018-08-31T02:44:00.538Z,11.67
2018-08-31T02:45:03.786Z,11.67
2018-08-31T02:46:06.646Z,11.58
2018-08-31T02:47:09.501Z,11.41
2018-08-31T02:48:12.345Z,11.24
2018-08-31T02:49:15.187Z,11.33
2018-08-31T02:50:18.171Z,11.45
2018-08-31T02:51:21.871Z,11.51
2018-08-31T02:52:24.706Z,11.67
2018-08-31T02:53:27.602Z,11.74
2018-08-31T02:54:30.492Z,11.73
2018-08-31T02:55:33.387Z,11.81
2018-08-31T02:56:36.902Z,11.87
2018-08-31T02:57:40.117Z,11.95
2018-08-31T02:58:44.081Z,12.05
2018-08-31T02:59:46.918Z,12.02
2018-08-31T03:00:49.732Z,12.01
2018-08-31T03:01:52.624Z,11.97
2018-08-31T03:02:56.652Z,11.95
2018-08-31T03:03:59.902Z,11.96
2018-08-31T03:05:02.763Z,11.89
2018-08-31T03:06:05.862Z,11.95
2018-08-31T03:07:09.245Z,11.96
2018-08-31T03:08:12.087Z,11.96
2018-08-31T03:09:15.454Z,11.95
2018-08-31T03:10:18.697Z,11.96
2018-08-31T03:11:21.628Z,11.95
2018-08-31T03:12:24.476Z,11.94
2018-08-31T03:13:27.341Z,11.75
2018-08-31T03:15:39.104Z,11.87
2018-08-31T03:16:42.260Z,11.91
2018-08-31T03:17:45.071Z,11.92
2018-08-31T03:18:47.925Z,11.93
2018-08-31T03:19:50.771Z,11.94
2018-08-31T03:20:53.638Z,11.99
2018-08-31T03:21:56.479Z,11.91
2018-08-31T03:23:00.661Z,11.87
2018-08-31T03:24:04.142Z,11.83
2018-08-31T03:25:07.141Z,11.81
2018-08-31T03:26:09.976Z,11.84
2018-08-31T03:27:12.818Z,11.86
2018-08-31T03:28:15.645Z,11.87
2018-08-31T03:29:19.405Z,11.92
2018-08-31T03:30:23.006Z,11.94
2018-08-31T03:31:25.860Z,11.84
2018-08-31T03:32:28.718Z,11.83
2018-08-31T03:33:31.546Z,11.62
2018-08-31T03:34:34.384Z,11.64
2018-08-31T03:35:37.686Z,11.50
2018-08-31T03:36:42.117Z,11.53
2018-08-31T03:37:44.980Z,11.57
2018-08-31T03:38:47.810Z,11.61
2018-08-31T03:39:50.852Z,11.57
2018-08-31T03:40:53.718Z,11.57
2018-08-31T03:41:56.963Z,11.58
2018-08-31T03:42:59.811Z,11.60
2018-08-31T03:44:02.693Z,11.67
2018-08-31T03:45:05.813Z,11.66
2018-08-31T03:46:08.751Z,11.57
2018-08-31T03:47:11.699Z,11.57
2018-08-31T03:48:15.052Z,11.64
2018-08-31T03:49:18.523Z,11.50
2018-08-31T03:50:23.089Z,11.42
2018-08-31T03:51:26.455Z,11.37
2018-08-31T03:52:29.295Z,11.33
2018-08-31T03:53:32.198Z,11.28
2018-08-31T03:54:35.529Z,11.32
2018-08-31T03:55:39.193Z,11.36
2018-08-31T03:56:42.253Z,11.38
2018-08-31T03:57:45.169Z,11.39
2018-08-31T03:58:48.652Z,11.48
2018-08-31T03:59:51.571Z,11.53
2018-08-31T04:00:54.836Z,11.45
2018-08-31T04:01:57.699Z,11.47
2018-08-31T04:03:00.513Z,11.51
2018-08-31T04:04:03.349Z,11.63
2018-08-31T04:05:06.282Z,11.66
2018-08-31T04:06:09.719Z,11.63
2018-08-31T04:07:12.911Z,11.71
2018-08-31T04:08:15.758Z,11.77
2018-08-31T04:09:18.590Z,11.82
2018-08-31T04:10:21.481Z,11.79
2018-08-31T04:11:24.321Z,11.75
2018-08-31T04:12:27.174Z,11.80
2018-08-31T04:13:32.978Z,11.82
2018-08-31T04:14:36.529Z,11.87
2018-08-31T04:15:41.855Z,11.89
2018-08-31T04:16:45.691Z,11.92
2018-08-31T04:17:48.571Z,11.77
2018-08-31T04:18:51.859Z,11.67
2018-08-31T04:19:54.710Z,11.67
2018-08-31T04:20:57.557Z,11.71
2018-08-31T04:22:01.293Z,11.73
2018-08-31T04:23:08.706Z,11.70
2018-08-31T04:24:11.650Z,11.64
2018-08-31T04:25:14.882Z,11.68
2018-08-31T04:26:18.369Z,11.69
2018-08-31T04:27:21.211Z,11.72
2018-08-31T04:28:24.057Z,11.76
2018-08-31T04:29:26.911Z,11.77
2018-08-31T04:30:29.805Z,11.83
2018-08-31T04:31:32.655Z,11.87
2018-08-31T04:32:35.492Z,11.85
2018-08-31T04:33:38.343Z,11.82
2018-08-31T04:34:41.278Z,11.81
2018-08-31T04:35:44.119Z,11.81
2018-08-31T04:36:47.357Z,11.86
2018-08-31T04:37:50.287Z,11.87
2018-08-31T04:38:53.157Z,11.88
2018-08-31T04:39:56.021Z,11.85
2018-08-31T04:40:58.981Z,11.85
2018-08-31T04:42:01.822Z,11.86
2018-08-31T04:43:04.971Z,11.87
2018-08-31T04:44:07.835Z,11.88
2018-08-31T04:45:10.709Z,11.89
2018-08-31T04:46:13.549Z,11.84
2018-08-31T04:47:16.689Z,11.83
2018-08-31T04:48:19.564Z,11.78
2018-08-31T04:49:22.810Z,11.74
2018-08-31T04:50:26.227Z,11.77
2018-08-31T04:51:29.244Z,11.76
2018-08-31T04:52:32.166Z,11.75
2018-08-31T04:53:35.004Z,11.79
2018-08-31T04:54:37.861Z,11.82
2018-08-31T04:55:41.042Z,11.82
2018-08-31T04:56:43.880Z,11.83
2018-08-31T04:57:46.700Z,11.85
2018-08-31T04:58:49.580Z,11.86
2018-08-31T04:59:53.095Z,11.88
2018-08-31T05:00:56.461Z,11.95
2018-08-31T05:01:59.879Z,11.96
2018-08-31T05:03:02.731Z,11.98
2018-08-31T05:04:06.250Z,11.99
2018-08-31T05:05:09.081Z,12.02
2018-08-31T05:06:12.935Z,12.03
2018-08-31T05:07:15.837Z,12.09
2018-08-31T05:08:19.416Z,12.08
2018-08-31T05:09:22.310Z,11.95
2018-08-31T05:10:25.141Z,11.84
2018-08-31T05:11:28.015Z,11.89
2018-08-31T05:12:30.851Z,11.85
2018-08-31T05:13:33.692Z,11.82
2018-08-31T05:14:36.829Z,11.79
2018-08-31T05:15:39.927Z,11.81
2018-08-31T05:16:42.800Z,11.77
2018-08-31T05:17:45.650Z,11.81
2018-08-31T05:18:48.685Z,11.82
2018-08-31T05:19:51.517Z,11.75
2018-08-31T05:20:54.397Z,11.75
2018-08-31T05:21:57.247Z,11.76
2018-08-31T05:23:00.169Z,11.70
2018-08-31T05:24:05.706Z,11.71
2018-08-31T05:25:08.574Z,11.78
2018-08-31T05:26:12.496Z,11.78
2018-08-31T05:27:15.406Z,11.77
2018-08-31T05:28:18.357Z,11.82
2018-08-31T05:29:21.352Z,11.92
2018-08-31T05:33:16.050Z,11.97
2018-08-31T05:34:18.984Z,12.01
2018-08-31T05:35:21.881Z,12.14
2018-08-31T05:36:24.762Z,12.20
2018-08-31T05:37:27.664Z,12.27
2018-08-31T05:38:31.091Z,12.35
2018-08-31T05:39:33.937Z,12.37
2018-08-31T05:40:36.797Z,12.37
2018-08-31T05:41:39.657Z,12.34
2018-08-31T05:42:42.516Z,12.14
2018-08-31T05:43:45.397Z,12.13
2018-08-31T05:44:49.368Z,12.16
2018-08-31T05:45:52.273Z,12.18
2018-08-31T05:46:55.144Z,12.19
2018-08-31T05:47:58.021Z,12.16
2018-08-31T05:49:02.728Z,12.23
2018-08-31T05:50:06.599Z,12.27
2018-08-31T05:51:09.987Z,12.33
2018-08-31T05:52:13.225Z,12.39
2018-08-31T05:53:16.103Z,12.45
2018-08-31T05:54:18.952Z,12.50
2018-08-31T05:55:21.901Z,12.57
2018-08-31T05:56:24.817Z,12.65
2018-08-31T05:57:29.041Z,12.48
2018-08-31T05:58:32.895Z,12.49
2018-08-31T05:59:37.628Z,12.44
2018-08-31T06:00:41.084Z,12.35
2018-08-31T06:01:45.670Z,12.26
2018-08-31T06:02:49.206Z,12.25
2018-08-31T06:03:52.856Z,12.23
2018-08-31T06:04:56.243Z,12.25
2018-08-31T06:05:59.148Z,12.36
2018-08-31T06:07:02.051Z,12.50
2018-08-31T06:08:05.073Z,12.62
2018-08-31T06:09:08.140Z,12.67
2018-08-31T06:10:11.708Z,12.71
2018-08-31T06:11:14.810Z,12.70
2018-08-31T06:12:17.791Z,12.65
2018-08-31T06:13:20.749Z,12.64
2018-08-31T06:14:24.344Z,12.74
2018-08-31T06:15:27.285Z,12.74
2018-08-31T06:16:30.835Z,12.77
2018-08-31T06:17:34.435Z,12.83
2018-08-31T06:18:37.421Z,12.85
2018-08-31T06:19:40.441Z,12.80
2018-08-31T06:20:43.509Z,12.79
2018-08-31T06:21:46.578Z,12.86
2018-08-31T06:22:50.008Z,12.84
2018-08-31T06:23:53.128Z,12.80
2018-08-31T06:24:56.475Z,12.89
2018-08-31T06:26:00.547Z,13.04
2018-08-31T06:27:03.484Z,13.05
2018-08-31T06:28:06.361Z,13.11
2018-08-31T06:29:10.667Z,13.14
2018-08-31T06:30:15.435Z,13.10
2018-08-31T06:31:18.337Z,13.21
2018-08-31T06:32:21.221Z,13.21
2018-08-31T06:33:24.139Z,13.26
2018-08-31T06:34:27.150Z,13.30
2018-08-31T06:35:30.340Z,13.30
2018-08-31T06:36:33.210Z,13.34
2018-08-31T06:37:36.304Z,13.34
2018-08-31T06:38:39.543Z,13.46
2018-08-31T06:39:42.557Z,13.52
2018-08-31T06:40:45.600Z,13.54
2018-08-31T06:41:48.864Z,13.59
2018-08-31T06:42:51.764Z,13.65
2018-08-31T06:43:54.983Z,13.73
2018-08-31T06:44:57.896Z,13.82
2018-08-31T06:46:01.354Z,13.91
2018-08-31T06:47:04.280Z,13.82
2018-08-31T06:48:07.672Z,13.75
2018-08-31T06:49:10.641Z,13.84
2018-08-31T06:50:13.612Z,13.97
2018-08-31T06:51:16.547Z,14.09
2018-08-31T06:52:20.184Z,14.25
2018-08-31T06:53:23.156Z,14.26
2018-08-31T06:54:26.401Z,14.17
2018-08-31T06:55:29.307Z,14.25
2018-08-31T06:56:32.201Z,14.29
2018-08-31T06:57:35.903Z,14.20
2018-08-31T06:58:39.019Z,14.13
2018-08-31T06:59:42.992Z,14.17
2018-08-31T07:00:46.276Z,14.15
2018-08-31T07:01:52.097Z,14.18
2018-08-31T07:02:55.044Z,14.18
2018-08-31T07:03:57.985Z,14.18
2018-08-31T07:05:00.880Z,14.27
2018-08-31T07:06:03.921Z,14.31
2018-08-31T07:07:06.877Z,14.36
2018-08-31T07:08:09.792Z,14.43
2018-08-31T07:09:13.160Z,14.42
2018-08-31T07:10:16.062Z,14.48
2018-08-31T07:11:20.005Z,14.57
2018-08-31T07:12:22.991Z,14.65
2018-08-31T07:13:26.253Z,14.67
2018-08-31T07:14:30.032Z,14.75
2018-08-31T07:15:32.927Z,14.78
2018-08-31T07:16:35.997Z,14.85
2018-08-31T07:17:38.904Z,14.93
2018-08-31T07:18:41.916Z,15.04
2018-08-31T07:19:45.225Z,15.30
2018-08-31T07:20:48.112Z,15.53
2018-08-31T07:21:50.992Z,15.79
2018-08-31T07:22:53.856Z,15.94
2018-08-31T07:23:57.266Z,16.02
2018-08-31T07:25:01.214Z,16.06
2018-08-31T07:26:04.153Z,16.19
2018-08-31T07:27:07.043Z,16.62
2018-08-31T07:28:11.759Z,16.71
2018-08-31T07:29:14.636Z,16.58
2018-08-31T07:30:17.539Z,16.62
2018-08-31T07:31:20.692Z,16.84
2018-08-31T07:32:23.557Z,16.97
2018-08-31T07:33:26.520Z,17.26
2018-08-31T07:34:30.837Z,17.41
2018-08-31T07:35:33.746Z,17.38
2018-08-31T07:36:36.704Z,17.68
2018-08-31T07:37:40.035Z,17.54
2018-08-31T07:38:43.575Z,17.27
2018-08-31T07:39:46.708Z,17.15
2018-08-31T07:40:50.087Z,17.01
2018-08-31T07:41:52.955Z,17.05
2018-08-31T07:42:55.844Z,16.77
2018-08-31T07:43:59.117Z,16.73
2018-08-31T07:45:01.995Z,17.08
2018-08-31T07:46:05.766Z,17.37
2018-08-31T07:47:09.301Z,17.58
2018-08-31T07:48:12.268Z,17.87
2018-08-31T07:49:15.195Z,18.06
2018-08-31T07:50:18.666Z,18.02
2018-08-31T07:51:21.540Z,18.09
2018-08-31T07:52:24.426Z,18.26
2018-08-31T07:53:30.944Z,17.91
2018-08-31T07:54:33.838Z,17.78
2018-08-31T07:55:38.868Z,17.81
2018-08-31T07:56:47.430Z,17.56
2018-08-31T07:57:51.350Z,17.69
2018-08-31T07:58:54.649Z,17.91
2018-08-31T07:59:58.104Z,17.80
2018-08-31T08:01:01.792Z,17.71
2018-08-31T08:02:05.484Z,17.94
2018-08-31T08:03:10.509Z,18.17
2018-08-31T08:04:13.823Z,18.29
2018-08-31T08:05:20.145Z,18.38
2018-08-31T08:06:31.489Z,18.26
2018-08-31T08:07:35.795Z,18.37
2018-08-31T08:08:39.980Z,18.57
2018-08-31T08:09:43.280Z,18.50
2018-08-31T08:10:46.258Z,18.70
2018-08-31T08:11:52.980Z,19.09
2018-08-31T08:12:56.724Z,19.62
2018-08-31T08:13:59.939Z,19.58
2018-08-31T08:15:03.251Z,19.78
2018-08-31T08:16:06.535Z,19.47
2018-08-31T08:17:10.495Z,18.71
2018-08-31T08:18:13.425Z,18.80
2018-08-31T08:19:18.061Z,19.17
2018-08-31T08:20:21.475Z,19.31
2018-08-31T08:21:24.307Z,19.42
2018-08-31T08:22:27.784Z,19.82
2018-08-31T08:23:30.689Z,19.87
2018-08-31T08:24:33.611Z,19.69
2018-08-31T08:25:36.536Z,19.88
2018-08-31T08:26:39.440Z,20.08
2018-08-31T08:27:42.572Z,20.33
2018-08-31T08:28:46.785Z,20.54
2018-08-31T08:29:50.383Z,20.41
2018-08-31T08:30:53.278Z,20.49
2018-08-31T08:31:56.257Z,20.86
2018-08-31T08:32:59.356Z,21.08
2018-08-31T08:34:02.265Z,20.83
2018-08-31T08:35:05.559Z,20.73
2018-08-31T08:36:11.796Z,20.60
2018-08-31T08:37:14.775Z,20.88
2018-08-31T08:38:17.969Z,21.37
2018-08-31T08:39:21.125Z,21.30
2018-08-31T08:40:24.973Z,20.86
2018-08-31T08:41:28.370Z,20.59
2018-08-31T08:42:33.128Z,21.08
2018-08-31T08:43:36.542Z,21.68
2018-08-31T08:44:41.096Z,21.99
2018-08-31T08:45:43.994Z,21.83
2018-08-31T08:46:46.928Z,21.69
2018-08-31T08:47:50.517Z,21.37
2018-08-31T08:48:53.402Z,21.97
2018-08-31T08:49:56.283Z,22.09
2018-08-31T08:50:59.155Z,21.79
2018-08-31T08:52:02.807Z,21.30
2018-08-31T08:53:05.900Z,21.31
2018-08-31T08:54:09.169Z,21.51
2018-08-31T08:55:12.200Z,21.75
2018-08-31T08:56:15.252Z,21.89
2018-08-31T08:57:18.177Z,21.71
2018-08-31T08:58:21.118Z,21.33
2018-08-31T08:59:24.252Z,21.22
2018-08-31T09:00:27.693Z,21.07
2018-08-31T09:01:30.627Z,21.11
2018-08-31T09:02:33.943Z,21.33
2018-08-31T09:03:36.973Z,21.26
2018-08-31T09:04:40.644Z,20.84
2018-08-31T09:05:44.308Z,21.28
2018-08-31T09:06:48.725Z,21.80
2018-08-31T09:07:51.695Z,22.42
2018-08-31T09:08:54.608Z,22.67
2018-08-31T09:09:57.497Z,23.06
2018-08-31T09:11:00.788Z,23.06
2018-08-31T09:12:03.725Z,23.20
2018-08-31T09:13:07.965Z,23.17
2018-08-31T09:14:10.989Z,22.62
2018-08-31T09:15:13.923Z,21.94
2018-08-31T09:16:17.133Z,22.03
2018-08-31T09:17:20.014Z,22.77
2018-08-31T09:18:24.020Z,22.86
2018-08-31T09:19:27.492Z,23.21
2018-08-31T09:20:30.378Z,22.88
2018-08-31T09:21:33.657Z,23.07
2018-08-31T09:22:36.785Z,22.93
2018-08-31T09:23:40.018Z,22.96
2018-08-31T09:24:43.048Z,23.01
2018-08-31T09:25:46.499Z,22.91
2018-08-31T09:26:49.693Z,23.22
2018-08-31T09:27:53.215Z,23.15
2018-08-31T09:28:57.807Z,23.47
2018-08-31T09:30:00.810Z,23.91
2018-08-31T09:31:11.655Z,23.69
2018-08-31T09:32:21.646Z,23.23
2018-08-31T09:33:25.855Z,23.61
2018-08-31T09:34:30.601Z,23.27
2018-08-31T09:35:33.472Z,22.75
2018-08-31T09:36:36.397Z,22.15
2018-08-31T09:37:40.597Z,21.98
2018-08-31T09:38:44.253Z,21.70
2018-08-31T09:39:47.196Z,21.72
2018-08-31T09:40:50.130Z,22.15
2018-08-31T09:41:54.317Z,22.47
2018-08-31T09:42:57.366Z,22.74
2018-08-31T09:44:01.194Z,22.96
2018-08-31T09:45:06.112Z,22.64
2018-08-31T09:46:09.269Z,22.57
2018-08-31T09:47:13.443Z,22.49
2018-08-31T09:48:16.407Z,22.48
2018-08-31T09:49:19.565Z,21.96
2018-08-31T09:50:23.469Z,21.86
2018-08-31T09:51:26.788Z,21.77
2018-08-31T09:52:31.672Z,22.14
2018-08-31T09:53:34.589Z,22.03
2018-08-31T09:54:38.319Z,22.61
2018-08-31T09:55:41.794Z,22.78
2018-08-31T09:56:46.360Z,23.17
2018-08-31T09:58:10.044Z,23.26
2018-08-31T09:59:13.434Z,22.97
2018-08-31T10:00:22.030Z,23.05
2018-08-31T10:01:30.399Z,22.94
2018-08-31T10:02:39.689Z,22.84
2018-08-31T10:03:45.070Z,22.15
2018-08-31T10:04:49.150Z,21.60
2018-08-31T10:07:21.578Z,21.60
2018-08-31T10:08:27.348Z,21.74
2018-08-31T10:09:30.542Z,21.99
2018-08-31T10:10:33.460Z,22.13
2018-08-31T10:11:36.725Z,21.93
2018-08-31T10:12:39.626Z,21.97
2018-08-31T10:14:45.065Z,22.79
2018-08-31T10:15:49.050Z,23.57
2018-08-31T10:16:53.153Z,24.10
2018-08-31T10:17:56.065Z,24.33
2018-08-31T10:19:00.130Z,24.53
2018-08-31T10:20:03.596Z,24.38
2018-08-31T10:21:07.202Z,23.84
2018-08-31T10:22:11.860Z,23.09
2018-08-31T10:23:15.173Z,22.58
2018-08-31T10:24:18.042Z,21.92
2018-08-31T10:25:21.626Z,21.65
2018-08-31T10:26:27.381Z,21.51
2018-08-31T10:27:39.844Z,21.53
2018-08-31T10:28:45.386Z,21.36
2018-08-31T10:29:48.293Z,21.31
2018-08-31T10:32:24.383Z,20.87
2018-08-31T10:33:27.304Z,21.37
2018-08-31T10:34:30.164Z,22.16
2018-08-31T10:35:33.414Z,22.82
2018-08-31T10:36:38.636Z,23.65
2018-08-31T10:37:44.102Z,24.05
2018-08-31T10:38:48.658Z,24.27
2018-08-31T10:39:51.937Z,24.55
2018-08-31T10:40:54.927Z,24.85
2018-08-31T10:41:59.803Z,24.62
2018-08-31T10:43:04.902Z,24.59
2018-08-31T10:44:08.848Z,23.69
2018-08-31T10:45:11.885Z,22.79
2018-08-31T10:46:15.561Z,22.18
2018-08-31T10:47:19.216Z,21.85
2018-08-31T10:48:24.517Z,21.55
2018-08-31T10:49:27.415Z,21.03
2018-08-31T10:50:30.867Z,20.92
2018-08-31T10:51:34.256Z,21.34
2018-08-31T10:52:37.705Z,21.80
2018-08-31T10:53:40.839Z,21.63
2018-08-31T10:54:44.215Z,21.53
2018-08-31T10:55:47.354Z,21.74
2018-08-31T10:56:50.541Z,21.47
2018-08-31T10:57:53.591Z,21.43
2018-08-31T10:58:56.600Z,21.42
2018-08-31T11:00:00.244Z,21.34
2018-08-31T11:01:03.228Z,21.35
2018-08-31T11:02:07.083Z,21.31
2018-08-31T11:03:10.672Z,21.49
2018-08-31T11:04:14.293Z,21.82
2018-08-31T11:05:17.254Z,22.13
2018-08-31T11:06:20.538Z,22.26
2018-08-31T11:07:23.499Z,22.47
2018-08-31T11:08:27.274Z,22.35
2018-08-31T11:09:30.156Z,22.44
2018-08-31T11:10:35.185Z,22.51
2018-08-31T11:11:39.669Z,22.79
2018-08-31T11:12:43.177Z,22.86
2018-08-31T11:13:46.665Z,22.88
2018-08-31T11:14:52.252Z,22.81
2018-08-31T11:15:55.394Z,22.56
2018-08-31T11:16:59.688Z,22.53
2018-08-31T11:18:02.573Z,22.35
2018-08-31T11:19:06.787Z,22.27
2018-08-31T11:20:09.670Z,22.52
2018-08-31T11:21:15.513Z,22.73
2018-08-31T11:22:22.844Z,23.01
2018-08-31T11:23:28.296Z,23.10
2018-08-31T11:24:31.207Z,22.89
2018-08-31T11:25:34.410Z,22.66
2018-08-31T11:26:37.335Z,22.32
2018-08-31T11:27:40.251Z,22.22
2018-08-31T11:28:43.183Z,22.19
2018-08-31T11:29:47.968Z,22.28
2018-08-31T11:30:50.981Z,22.34
2018-08-31T11:31:54.381Z,22.33
2018-08-31T11:32:57.504Z,22.30
2018-08-31T11:34:01.224Z,22.03
2018-08-31T11:35:05.057Z,22.28
2018-08-31T11:36:08.103Z,22.65
2018-08-31T11:37:11.681Z,22.91
2018-08-31T11:38:15.146Z,22.39
2018-08-31T11:39:18.642Z,22.76
2018-08-31T11:40:24.197Z,22.96
2018-08-31T11:41:31.176Z,22.89
2018-08-31T11:42:35.706Z,22.73
2018-08-31T11:43:38.797Z,22.64
2018-08-31T11:44:42.105Z,22.47
2018-08-31T11:45:52.218Z,22.26
2018-08-31T11:46:55.694Z,21.96
2018-08-31T11:47:59.383Z,21.85
2018-08-31T11:49:02.522Z,21.81
2018-08-31T11:50:05.387Z,21.72
2018-08-31T11:51:08.629Z,22.11
2018-08-31T11:52:11.554Z,21.02
2018-08-31T11:53:15.969Z,20.72
2018-08-31T11:54:19.401Z,20.98
2018-08-31T11:55:22.634Z,21.26
2018-08-31T11:56:25.717Z,21.26
2018-08-31T11:57:29.070Z,21.13
2018-08-31T11:58:33.663Z,21.00
2018-08-31T11:59:36.595Z,21.34
2018-08-31T12:00:39.885Z,21.18
2018-08-31T12:01:43.399Z,21.26
2018-08-31T12:02:47.864Z,21.37
2018-08-31T12:03:51.291Z,21.49
2018-08-31T12:04:54.168Z,20.59
2018-08-31T12:05:57.931Z,20.36
2018-08-31T12:07:01.445Z,20.69
2018-08-31T12:08:09.259Z,20.90
2018-08-31T12:09:14.282Z,20.83
2018-08-31T12:10:19.320Z,20.91
2018-08-31T12:11:23.885Z,20.96
2018-08-31T12:12:27.710Z,21.15
2018-08-31T12:13:32.958Z,20.95
2018-08-31T12:14:36.225Z,20.94
2018-08-31T12:15:41.544Z,20.91
2018-08-31T12:16:46.594Z,21.04
2018-08-31T12:17:52.445Z,20.96
2018-08-31T12:18:56.444Z,20.93
2018-08-31T12:19:59.321Z,20.78
2018-08-31T12:21:02.277Z,20.76
2018-08-31T12:22:05.616Z,20.97
2018-08-31T12:23:08.567Z,20.86
2018-08-31T12:24:11.843Z,20.82
2018-08-31T12:25:14.711Z,20.79
2018-08-31T12:26:17.864Z,20.86
2018-08-31T12:27:21.410Z,20.87
2018-08-31T12:28:24.620Z,20.92
2018-08-31T12:29:27.996Z,21.03
2018-08-31T12:30:31.453Z,20.93
2018-08-31T12:31:37.949Z,20.94
2018-08-31T12:32:40.857Z,20.94
2018-08-31T12:33:44.640Z,20.83
2018-08-31T12:34:47.797Z,20.86
2018-08-31T12:35:50.696Z,20.85
2018-08-31T12:36:54.257Z,20.62
2018-08-31T12:37:57.745Z,20.76
2018-08-31T12:39:03.795Z,20.92
2018-08-31T12:40:07.811Z,21.37
2018-08-31T12:41:12.800Z,21.65
2018-08-31T12:42:15.672Z,21.83
2018-08-31T12:43:19.542Z,21.91
2018-08-31T12:44:25.546Z,21.94
2018-08-31T12:45:28.428Z,22.13
2018-08-31T12:46:31.904Z,22.21
2018-08-31T12:47:35.780Z,22.50
2018-08-31T12:48:38.689Z,22.43
2018-08-31T12:49:41.898Z,22.14
2018-08-31T12:50:45.419Z,22.17
2018-08-31T12:51:49.937Z,22.11
2018-08-31T12:52:53.957Z,22.06
2018-08-31T12:53:56.949Z,21.99
2018-08-31T12:54:59.821Z,21.73
2018-08-31T12:56:03.420Z,21.67
2018-08-31T12:57:07.544Z,21.39
2018-08-31T12:58:11.315Z,21.22
2018-08-31T12:59:14.369Z,21.15
2018-08-31T13:00:18.677Z,21.15
2018-08-31T13:01:21.595Z,21.21
2018-08-31T13:02:24.488Z,21.20
2018-08-31T13:03:27.404Z,20.95
2018-08-31T13:04:31.925Z,20.99
2018-08-31T13:05:34.832Z,20.95
2018-08-31T13:06:38.873Z,20.90
2018-08-31T13:07:41.731Z,20.83
2018-08-31T13:08:44.624Z,20.78
2018-08-31T13:09:47.628Z,20.64
2018-08-31T13:10:50.525Z,20.59
2018-08-31T13:11:53.716Z,20.60
2018-08-31T13:12:56.660Z,20.49
2018-08-31T13:13:59.619Z,20.54
2018-08-31T13:15:04.619Z,20.55
2018-08-31T13:16:09.529Z,20.61
2018-08-31T13:17:12.469Z,20.76
2018-08-31T13:18:17.120Z,20.77
2018-08-31T13:19:21.111Z,20.63
2018-08-31T13:20:24.534Z,20.67
2018-08-31T13:21:27.491Z,20.77
2018-08-31T13:22:30.405Z,20.92
2018-08-31T13:23:33.569Z,20.92
2018-08-31T13:24:38.556Z,20.83
2018-08-31T13:25:41.622Z,20.78
2018-08-31T13:26:44.780Z,20.67
2018-08-31T13:27:48.388Z,20.56
2018-08-31T13:28:56.632Z,20.66
2018-08-31T13:29:59.651Z,20.76
2018-08-31T13:31:03.032Z,20.81
2018-08-31T13:32:06.001Z,20.95
2018-08-31T13:33:08.870Z,21.05
2018-08-31T13:34:11.786Z,20.98
2018-08-31T13:35:15.467Z,20.95
2018-08-31T13:36:19.481Z,20.98
2018-08-31T13:37:23.501Z,21.14
2018-08-31T13:38:26.455Z,21.33
2018-08-31T13:39:29.354Z,21.44
2018-08-31T13:40:32.277Z,21.46
2018-08-31T13:41:35.558Z,21.22
2018-08-31T13:42:38.437Z,21.16
2018-08-31T13:43:41.635Z,21.17
2018-08-31T13:44:48.948Z,21.21